Time;durP1;ratioP1;P1;durP2;ratioP2;P2;SDS_P1;SDS_P2;PMS_P1;PMS_P2;Temp;Humidity;BMP_temperature;BMP_pressure;BME280_temperature;BME280_humidity;BME280_pressure;Samples;Min_cycle;Max_cycle;Signal;HPM_P1;HPM_P2
2021/03/14 00:01:01;;;;;;;1.83;0.80;;;23.30;27.30;;;;;;5069915;28;20225;-52
2021/03/14 00:03:27;;;;;;;0.70;0.70;;;23.30;27.30;;;;;;5070449;28;20812;-52
2021/03/14 00:05:53;;;;;;;0.80;0.80;;;23.40;27.40;;;;;;5070415;28;20654;-53
2021/03/14 00:08:19;;;;;;;0.80;0.75;;;23.40;27.30;;;;;;5070539;28;20197;-50
2021/03/14 00:10:45;;;;;;;0.70;0.70;;;23.40;27.30;;;;;;5067250;28;20197;-53
2021/03/14 00:13:11;;;;;;;0.80;0.80;;;23.40;27.30;;;;;;5065413;28;20208;-55
2021/03/14 00:15:37;;;;;;;0.70;0.70;;;23.30;26.20;;;;;;5069858;28;20588;-52
2021/03/14 00:18:03;;;;;;;0.73;0.73;;;23.30;26.40;;;;;;5071189;28;20208;-51
2021/03/14 00:20:29;;;;;;;0.77;0.77;;;23.30;26.70;;;;;;5070847;28;20228;-52
2021/03/14 00:22:55;;;;;;;1.57;0.80;;;23.30;26.70;;;;;;5068987;28;20271;-49
2021/03/14 00:25:21;;;;;;;0.73;0.73;;;23.30;26.90;;;;;;5070601;28;20228;-51
2021/03/14 00:27:47;;;;;;;0.67;0.67;;;23.30;27.00;;;;;;5068277;28;20653;-52
2021/03/14 00:30:13;;;;;;;0.90;0.90;;;23.30;26.90;;;;;;5070714;28;20211;-55
2021/03/14 00:32:39;;;;;;;0.80;0.80;;;23.30;26.90;;;;;;5069416;28;20208;-50
2021/03/14 00:35:05;;;;;;;0.70;0.70;;;23.30;26.90;;;;;;5070854;28;20225;-53
2021/03/14 00:37:31;;;;;;;1.13;0.70;;;23.30;26.90;;;;;;5069208;28;20246;-52
2021/03/14 00:39:57;;;;;;;0.80;0.70;;;23.30;27.00;;;;;;5070295;28;20622;-50
2021/03/14 00:42:23;;;;;;;0.75;0.75;;;23.20;26.90;;;;;;5069342;28;20204;-55
2021/03/14 00:44:48;;;;;;;2.63;0.80;;;23.20;26.90;;;;;;5069054;28;20589;-51
2021/03/14 00:47:14;;;;;;;0.80;0.70;;;23.30;27.00;;;;;;5070236;28;20201;-53
2021/03/14 00:49:40;;;;;;;1.45;0.80;;;23.30;27.00;;;;;;5069690;28;20216;-49
2021/03/14 00:52:06;;;;;;;1.37;0.77;;;23.30;27.10;;;;;;5070154;28;20319;-50
2021/03/14 00:54:32;;;;;;;0.73;0.73;;;23.30;27.00;;;;;;5069752;28;20221;-53
2021/03/14 00:56:58;;;;;;;0.80;0.80;;;23.30;27.10;;;;;;5070139;28;20215;-49
2021/03/14 00:59:24;;;;;;;0.87;0.80;;;23.30;27.10;;;;;;5069860;28;20213;-49
2021/03/14 01:01:50;;;;;;;0.80;0.80;;;23.30;27.00;;;;;;5069828;28;20567;-52
2021/03/14 01:04:16;;;;;;;0.70;0.70;;;23.30;27.00;;;;;;5069697;28;20220;-51
2021/03/14 01:06:42;;;;;;;1.15;0.60;;;23.30;27.10;;;;;;5070673;28;20664;-49
2021/03/14 01:09:08;;;;;;;2.00;0.77;;;23.30;27.10;;;;;;5069781;28;20200;-49
2021/03/14 01:11:34;;;;;;;0.70;0.70;;;23.30;27.10;;;;;;5069100;28;20215;-52
2021/03/14 01:14:00;;;;;;;0.98;0.80;;;23.30;27.10;;;;;;5066873;28;20633;-50
2021/03/14 01:16:26;;;;;;;1.37;0.80;;;23.30;27.10;;;;;;5067831;28;20201;-51
2021/03/14 01:18:52;;;;;;;1.13;0.70;;;23.30;27.10;;;;;;5068776;28;20196;-49
2021/03/14 01:21:18;;;;;;;1.02;0.82;;;23.30;27.10;;;;;;5066583;28;20255;-50
2021/03/14 01:23:44;;;;;;;0.70;0.70;;;23.30;27.10;;;;;;5069479;28;20204;-50
2021/03/14 01:26:10;;;;;;;0.77;0.77;;;23.30;27.00;;;;;;5068988;28;20731;-53
2021/03/14 01:28:36;;;;;;;1.67;0.77;;;23.30;27.00;;;;;;5070296;28;20197;-54
2021/03/14 01:31:02;;;;;;;0.75;0.75;;;23.20;27.00;;;;;;5070189;28;20203;-50
2021/03/14 01:33:28;;;;;;;0.90;0.77;;;23.20;27.00;;;;;;5069792;28;20541;-52
2021/03/14 01:35:54;;;;;;;1.27;0.98;;;23.20;27.10;;;;;;5068983;28;20228;-50
2021/03/14 01:38:20;;;;;;;0.67;0.67;;;23.30;27.10;;;;;;5070163;28;20208;-50
2021/03/14 01:40:46;;;;;;;0.70;0.70;;;23.20;27.10;;;;;;5070490;28;20274;-51
2021/03/14 01:43:12;;;;;;;0.97;0.83;;;23.30;27.10;;;;;;5068624;28;20201;-50
2021/03/14 01:45:38;;;;;;;1.00;0.90;;;23.30;27.10;;;;;;5070494;28;20686;-53
2021/03/14 01:48:06;;;;;;;0.80;0.80;;;23.30;27.10;;;;;;5062889;28;20231;-49
2021/03/14 01:50:32;;;;;;;0.70;0.70;;;23.30;27.10;;;;;;5069966;28;20678;-51
2021/03/14 01:52:58;;;;;;;0.70;0.70;;;23.30;27.10;;;;;;5069099;28;20208;-53
2021/03/14 01:55:23;;;;;;;1.00;0.70;;;23.30;27.10;;;;;;5070201;28;20228;-47
2021/03/14 01:57:49;;;;;;;0.93;0.80;;;23.30;27.10;;;;;;5069225;28;20205;-49
2021/03/14 02:00:15;;;;;;;0.70;0.70;;;23.30;27.20;;;;;;5068628;28;20248;-49
2021/03/14 02:02:41;;;;;;;0.80;0.80;;;23.30;27.20;;;;;;5069069;28;20211;-48
2021/03/14 02:05:07;;;;;;;0.70;0.70;;;23.30;27.20;;;;;;5069570;28;20255;-49
2021/03/14 02:07:33;;;;;;;1.10;0.80;;;23.30;27.20;;;;;;5069196;28;20756;-51
2021/03/14 02:09:59;;;;;;;0.70;0.70;;;23.30;27.20;;;;;;5068881;28;20201;-52
2021/03/14 02:12:25;;;;;;;0.97;0.80;;;23.30;27.20;;;;;;5069225;28;20205;-50
2021/03/14 02:14:51;;;;;;;0.90;0.87;;;23.20;27.20;;;;;;5069342;28;20220;-51
2021/03/14 02:17:17;;;;;;;2.23;0.70;;;23.20;27.20;;;;;;5071920;28;20223;-51
2021/03/14 02:19:43;;;;;;;1.00;0.90;;;23.20;27.20;;;;;;5071924;28;20742;-50
2021/03/14 02:22:09;;;;;;;0.77;0.77;;;23.30;27.20;;;;;;5073052;28;20212;-53
2021/03/14 02:24:35;;;;;;;0.70;0.70;;;23.20;27.20;;;;;;5071637;28;20224;-50
2021/03/14 02:27:01;;;;;;;0.83;0.70;;;23.30;27.20;;;;;;5072308;28;20205;-48
2021/03/14 02:29:27;;;;;;;0.93;0.70;;;23.20;27.20;;;;;;5073725;28;20196;-48
2021/03/14 02:31:53;;;;;;;0.60;0.60;;;23.20;27.20;;;;;;5071698;28;20787;-48
2021/03/14 02:34:19;;;;;;;0.70;0.70;;;23.30;27.20;;;;;;5071422;28;20223;-52
2021/03/14 02:36:45;;;;;;;1.23;0.60;;;23.30;27.20;;;;;;5073054;28;20201;-49
2021/03/14 02:39:11;;;;;;;0.80;0.70;;;23.30;27.20;;;;;;5072455;28;20258;-49
2021/03/14 02:41:37;;;;;;;0.95;0.70;;;23.30;27.30;;;;;;5072140;28;20243;-47
2021/03/14 02:44:03;;;;;;;0.80;0.80;;;23.30;27.30;;;;;;5071583;28;20720;-48
2021/03/14 02:46:29;;;;;;;0.70;0.70;;;23.30;27.20;;;;;;5071666;28;20204;-49
2021/03/14 02:48:55;;;;;;;1.17;0.80;;;23.30;27.30;;;;;;5072745;28;20208;-49
2021/03/14 02:51:21;;;;;;;0.80;0.80;;;23.30;27.30;;;;;;5072292;28;20646;-51
2021/03/14 02:53:47;;;;;;;0.77;0.77;;;23.30;27.30;;;;;;5071919;28;20228;-49
2021/03/14 02:56:13;;;;;;;0.90;0.70;;;23.20;27.20;;;;;;5071885;28;20208;-47
2021/03/14 02:58:39;;;;;;;0.80;0.80;;;23.30;27.30;;;;;;5071553;28;20558;-50
2021/03/14 03:01:05;;;;;;;0.70;0.70;;;23.30;27.30;;;;;;5072585;28;20240;-48
2021/03/14 03:03:31;;;;;;;0.70;0.70;;;23.20;27.30;;;;;;5070865;28;20203;-48
2021/03/14 03:05:57;;;;;;;0.70;0.70;;;23.30;27.40;;;;;;5063826;28;20206;-48
2021/03/14 03:08:23;;;;;;;2.10;0.70;;;23.30;27.40;;;;;;5056839;28;20594;-52
2021/03/14 03:10:49;;;;;;;0.70;0.70;;;23.20;27.40;;;;;;5072412;28;20197;-50
2021/03/14 03:13:15;;;;;;;0.83;0.80;;;23.20;27.40;;;;;;5066258;28;20624;-48
2021/03/14 03:15:41;;;;;;;0.70;0.70;;;23.20;27.30;;;;;;5072572;28;20203;-50
2021/03/14 03:18:06;;;;;;;0.70;0.67;;;23.20;27.40;;;;;;5071360;28;20219;-50
2021/03/14 03:20:32;;;;;;;0.60;0.60;;;23.30;27.50;;;;;;5071358;28;20566;-53
2021/03/14 03:22:58;;;;;;;0.70;0.70;;;23.20;27.40;;;;;;5070713;28;20205;-50
2021/03/14 03:25:24;;;;;;;0.70;0.70;;;23.20;27.40;;;;;;5067740;28;20227;-50
2021/03/14 03:27:50;;;;;;;0.70;0.70;;;23.30;27.40;;;;;;5083759;22;20254;-42
2021/03/14 03:30:16;;;;;;;0.93;0.87;;;23.20;27.40;;;;;;5073174;28;20201;-42
2021/03/14 03:32:42;;;;;;;2.07;0.70;;;23.20;27.30;;;;;;5070592;28;20208;-42
2021/03/14 03:35:08;;;;;;;0.70;0.70;;;23.20;27.40;;;;;;5072249;28;20596;-42
2021/03/14 03:37:34;;;;;;;0.90;0.80;;;23.20;27.30;;;;;;5071516;28;20202;-47
2021/03/14 03:40:00;;;;;;;0.77;0.70;;;23.20;27.40;;;;;;5072993;28;20272;-42
2021/03/14 03:42:26;;;;;;;1.23;0.77;;;23.20;27.40;;;;;;5071297;28;20208;-42
2021/03/14 03:44:52;;;;;;;0.70;0.70;;;23.30;27.40;;;;;;5072536;28;20305;-43
2021/03/14 03:47:18;;;;;;;0.63;0.63;;;23.20;27.30;;;;;;5070372;28;20213;-42
2021/03/14 03:49:44;;;;;;;1.30;0.83;;;23.20;27.30;;;;;;5064905;28;20207;-42
2021/03/14 03:52:10;;;;;;;0.80;0.80;;;23.20;27.30;;;;;;5071190;28;20211;-45
2021/03/14 03:54:36;;;;;;;1.07;0.73;;;23.20;27.90;;;;;;5071036;28;20225;-43
2021/03/14 03:57:02;;;;;;;0.70;0.63;;;23.30;27.50;;;;;;5071584;28;20205;-45
2021/03/14 03:59:28;;;;;;;0.77;0.73;;;23.20;27.40;;;;;;5072784;28;20246;-43
2021/03/14 04:01:54;;;;;;;0.60;0.60;;;23.20;27.40;;;;;;5070828;28;20208;-42
2021/03/14 04:04:20;;;;;;;0.70;0.70;;;23.30;27.50;;;;;;5071983;28;20235;-43
2021/03/14 04:06:46;;;;;;;0.70;0.70;;;23.20;27.40;;;;;;5064554;28;20680;-43
2021/03/14 04:09:12;;;;;;;0.80;0.70;;;23.20;27.50;;;;;;5071248;28;20197;-45
2021/03/14 04:11:38;;;;;;;0.67;0.67;;;23.20;27.50;;;;;;5072194;28;20204;-43
2021/03/14 04:14:04;;;;;;;0.70;0.70;;;23.20;27.50;;;;;;5071046;28;20751;-43
2021/03/14 04:16:30;;;;;;;0.70;0.70;;;23.20;27.50;;;;;;5072046;28;20212;-46
2021/03/14 04:18:56;;;;;;;0.80;0.80;;;23.30;27.50;;;;;;5070243;28;20205;-43
2021/03/14 04:21:22;;;;;;;1.77;0.80;;;23.20;27.50;;;;;;5072616;28;20862;-43
2021/03/14 04:23:48;;;;;;;0.70;0.70;;;23.20;27.50;;;;;;5069093;28;20226;-43
2021/03/14 04:26:13;;;;;;;0.60;0.60;;;23.20;27.50;;;;;;5072266;28;20208;-43
2021/03/14 04:28:39;;;;;;;0.80;0.80;;;23.20;27.50;;;;;;5071312;28;20657;-43
2021/03/14 04:31:05;;;;;;;0.70;0.70;;;23.20;27.40;;;;;;5071003;28;20208;-45
2021/03/14 04:33:31;;;;;;;1.90;0.80;;;23.20;27.50;;;;;;5071241;28;20220;-43
2021/03/14 04:35:59;;;;;;;0.70;0.70;;;23.20;27.50;;;;;;5070754;28;20632;-43
2021/03/14 04:38:25;;;;;;;0.60;0.60;;;23.20;27.40;;;;;;5071047;28;20244;-43
2021/03/14 04:40:51;;;;;;;0.60;0.60;;;23.20;27.40;;;;;;5069743;28;20704;-43
2021/03/14 04:43:17;;;;;;;0.70;0.70;;;23.30;27.50;;;;;;5071438;28;20232;-43
2021/03/14 04:45:42;;;;;;;0.70;0.70;;;23.30;27.50;;;;;;5062798;28;20207;-44
2021/03/14 04:48:08;;;;;;;0.70;0.70;;;23.30;27.50;;;;;;5070415;28;20648;-45
2021/03/14 04:50:34;;;;;;;0.70;0.70;;;23.20;27.50;;;;;;5069340;28;20197;-42
2021/03/14 04:53:00;;;;;;;0.80;0.80;;;23.20;27.40;;;;;;5070265;28;20567;-43
2021/03/14 04:55:26;;;;;;;0.80;0.80;;;23.20;27.40;;;;;;5070431;28;20261;-44
2021/03/14 04:57:52;;;;;;;0.70;0.70;;;23.20;27.40;;;;;;5071279;28;20208;-43
2021/03/14 05:00:18;;;;;;;1.13;0.70;;;23.20;27.40;;;;;;5071473;28;20244;-44
2021/03/14 05:02:44;;;;;;;1.27;0.70;;;23.20;27.30;;;;;;5070040;28;20196;-44
2021/03/14 05:05:10;;;;;;;0.80;0.80;;;23.20;26.80;;;;;;5065306;28;20633;-43
2021/03/14 05:07:36;;;;;;;1.00;0.97;;;23.10;27.20;;;;;;5069907;28;20200;-43
2021/03/14 05:10:02;;;;;;;0.77;0.70;;;23.20;27.30;;;;;;5071602;28;20211;-46
2021/03/14 05:12:28;;;;;;;0.60;0.60;;;23.20;27.30;;;;;;5070416;28;20575;-45
2021/03/14 05:14:54;;;;;;;0.80;0.80;;;23.20;27.40;;;;;;5070953;28;20224;-42
2021/03/14 05:17:20;;;;;;;0.70;0.70;;;23.20;27.50;;;;;;5070711;28;20241;-42
2021/03/14 05:19:46;;;;;;;2.63;0.80;;;23.20;28.00;;;;;;5070258;28;20625;-43
2021/03/14 05:22:12;;;;;;;0.70;0.70;;;23.20;27.40;;;;;;5071014;28;20215;-43
2021/03/14 05:24:38;;;;;;;0.70;0.70;;;23.20;27.40;;;;;;5069341;28;20228;-44
2021/03/14 05:27:04;;;;;;;0.80;0.67;;;23.20;27.40;;;;;;5069776;28;20564;-43
2021/03/14 05:29:30;;;;;;;0.70;0.70;;;23.20;27.40;;;;;;5070737;28;20204;-42
2021/03/14 05:31:56;;;;;;;1.07;0.97;;;23.20;27.40;;;;;;5068252;28;20215;-43
2021/03/14 05:34:22;;;;;;;0.73;0.73;;;23.20;27.50;;;;;;5067875;28;20220;-43
2021/03/14 05:36:48;;;;;;;0.73;0.73;;;23.20;27.40;;;;;;5070382;28;20234;-44
2021/03/14 05:39:14;;;;;;;0.70;0.70;;;23.20;27.50;;;;;;5069940;28;20680;-43
2021/03/14 05:41:40;;;;;;;0.80;0.80;;;23.20;27.50;;;;;;5070047;28;20224;-43
2021/03/14 05:44:06;;;;;;;0.70;0.70;;;23.20;27.50;;;;;;5060658;28;20228;-43
2021/03/14 05:46:32;;;;;;;1.67;0.90;;;23.20;27.50;;;;;;5061795;28;20204;-43
2021/03/14 05:48:58;;;;;;;0.73;0.73;;;23.20;27.70;;;;;;5066922;28;20294;-43
2021/03/14 05:51:24;;;;;;;2.33;0.80;;;23.20;27.70;;;;;;5062761;28;20670;-43
2021/03/14 05:53:50;;;;;;;0.70;0.70;;;23.20;27.70;;;;;;5074664;28;20225;-44
2021/03/14 05:56:16;;;;;;;0.73;0.70;;;23.10;27.50;;;;;;5073672;28;20197;-43
2021/03/14 05:58:42;;;;;;;0.87;0.63;;;23.10;27.50;;;;;;5074047;28;20597;-43
2021/03/14 06:01:11;;;;;;;0.73;0.70;;;23.10;27.50;;;;;;5074518;28;20228;-44
2021/03/14 06:03:37;;;;;;;0.70;0.70;;;23.10;27.50;;;;;;5074048;28;20254;-43
2021/03/14 06:06:03;;;;;;;1.10;0.70;;;23.10;27.40;;;;;;5072929;28;20208;-42
2021/03/14 06:08:29;;;;;;;0.70;0.70;;;23.20;27.60;;;;;;5074583;28;20207;-43
2021/03/14 06:10:54;;;;;;;1.67;0.70;;;23.20;27.60;;;;;;5072773;28;20261;-43
2021/03/14 06:13:20;;;;;;;0.60;0.60;;;23.20;27.60;;;;;;5072893;28;20226;-44
2021/03/14 06:15:46;;;;;;;0.60;0.60;;;23.20;27.60;;;;;;5074062;28;20207;-44
2021/03/14 06:18:12;;;;;;;0.60;0.60;;;23.20;27.50;;;;;;5073535;28;20197;-43
2021/03/14 06:20:39;;;;;;;1.00;1.00;;;23.20;27.50;;;;;;5073229;28;20228;-42
2021/03/14 06:23:05;;;;;;;0.93;0.77;;;23.20;28.10;;;;;;5072628;28;20233;-43
2021/03/14 06:25:31;;;;;;;0.70;0.70;;;23.20;27.50;;;;;;5072323;28;20200;-43
2021/03/14 06:27:57;;;;;;;0.77;0.77;;;23.20;27.50;;;;;;5053086;28;20212;-44
2021/03/14 06:30:23;;;;;;;1.43;0.60;;;23.20;27.50;;;;;;5063908;28;20205;-43
2021/03/14 06:32:49;;;;;;;0.60;0.60;;;23.20;27.50;;;;;;5073479;28;20216;-43
2021/03/14 06:35:15;;;;;;;0.70;0.70;;;23.20;27.50;;;;;;5073451;28;20197;-43
2021/03/14 06:37:41;;;;;;;0.60;0.60;;;23.20;27.50;;;;;;5073389;28;20654;-42
2021/03/14 06:40:07;;;;;;;0.70;0.70;;;23.20;27.50;;;;;;5072925;28;20286;-42
2021/03/14 06:42:33;;;;;;;0.80;0.80;;;23.20;27.50;;;;;;5072846;28;20232;-43
2021/03/14 06:44:59;;;;;;;0.67;0.67;;;23.20;27.50;;;;;;5072772;28;20567;-47
2021/03/14 06:47:25;;;;;;;1.40;0.80;;;23.20;27.50;;;;;;5072905;28;20208;-42
2021/03/14 06:49:51;;;;;;;0.70;0.70;;;23.20;27.60;;;;;;5072722;28;20204;-43
2021/03/14 06:52:17;;;;;;;0.60;0.60;;;23.20;27.60;;;;;;5072357;28;20317;-42
2021/03/14 06:54:45;;;;;;;2.57;0.80;;;23.20;27.70;;;;;;5073672;28;20205;-43
2021/03/14 06:57:11;;;;;;;0.63;0.60;;;23.20;27.70;;;;;;5072219;28;20204;-42
2021/03/14 06:59:37;;;;;;;1.20;0.70;;;23.20;27.70;;;;;;5072294;28;20251;-45
2021/03/14 07:02:03;;;;;;;0.60;0.60;;;23.20;27.70;;;;;;5071806;28;20217;-43
2021/03/14 07:04:29;;;;;;;0.60;0.60;;;23.20;27.60;;;;;;5072649;28;20249;-42
2021/03/14 07:06:55;;;;;;;1.07;0.60;;;23.20;27.60;;;;;;5072544;28;20198;-42
2021/03/14 07:09:21;;;;;;;0.63;0.63;;;23.20;27.60;;;;;;5073011;28;20201;-42
2021/03/14 07:11:47;;;;;;;0.80;0.70;;;23.20;27.50;;;;;;5071801;28;20209;-43
2021/03/14 07:14:13;;;;;;;0.60;0.60;;;23.20;27.60;;;;;;5073141;28;20208;-44
2021/03/14 07:16:39;;;;;;;0.60;0.60;;;23.20;27.60;;;;;;5072462;28;20672;-43
2021/03/14 07:19:05;;;;;;;1.33;0.77;;;23.20;27.60;;;;;;5072609;28;20204;-43
2021/03/14 07:21:30;;;;;;;0.63;0.60;;;23.20;27.60;;;;;;5072240;28;20711;-42
2021/03/14 07:23:56;;;;;;;0.60;0.60;;;23.20;27.60;;;;;;5072063;28;20228;-43
2021/03/14 07:26:22;;;;;;;0.95;0.60;;;23.20;27.60;;;;;;5071828;28;20192;-43
2021/03/14 07:28:48;;;;;;;0.63;0.60;;;23.20;27.60;;;;;;5072324;28;20205;-44
2021/03/14 07:31:14;;;;;;;1.27;0.70;;;23.20;27.60;;;;;;5070948;28;20201;-43
2021/03/14 07:33:40;;;;;;;1.00;0.73;;;23.20;27.70;;;;;;5072604;28;20282;-43
2021/03/14 07:36:06;;;;;;;1.57;0.70;;;23.20;27.60;;;;;;5072364;28;20246;-43
2021/03/14 07:38:32;;;;;;;0.60;0.60;;;23.10;27.70;;;;;;5073190;28;20200;-42
2021/03/14 07:40:58;;;;;;;0.60;0.60;;;23.10;27.50;;;;;;5071902;28;20282;-46
2021/03/14 07:43:24;;;;;;;0.83;0.70;;;23.10;27.60;;;;;;5071168;28;20591;-43
2021/03/14 07:45:50;;;;;;;1.07;0.70;;;23.20;27.70;;;;;;5072904;28;20211;-43
2021/03/14 07:48:16;;;;;;;0.60;0.60;;;23.20;27.70;;;;;;5071181;28;20207;-44
2021/03/14 07:50:44;;;;;;;0.70;0.70;;;23.20;27.70;;;;;;5071081;28;20205;-43
2021/03/14 07:53:10;;;;;;;0.63;0.63;;;23.20;27.70;;;;;;5070610;28;20221;-44
2021/03/14 07:55:36;;;;;;;0.80;0.80;;;23.20;27.70;;;;;;5071786;28;20218;-43
2021/03/14 07:58:02;;;;;;;0.70;0.70;;;23.20;27.60;;;;;;5072771;28;20641;-43
2021/03/14 08:00:28;;;;;;;0.60;0.60;;;23.20;27.60;;;;;;5071114;28;20224;-44
2021/03/14 08:02:54;;;;;;;0.93;0.70;;;23.20;27.70;;;;;;5071145;28;20221;-42
2021/03/14 08:05:20;;;;;;;0.73;0.60;;;23.20;27.60;;;;;;5072444;28;20737;-43
2021/03/14 08:07:46;;;;;;;0.93;0.70;;;23.20;27.60;;;;;;5071606;28;20207;-44
2021/03/14 08:10:12;;;;;;;0.70;0.70;;;23.20;27.60;;;;;;5072454;28;20208;-45
2021/03/14 08:12:38;;;;;;;0.60;0.60;;;23.20;27.60;;;;;;5060454;28;20230;-43
2021/03/14 08:15:04;;;;;;;2.03;1.00;;;23.20;27.70;;;;;;5071477;28;20678;-43
2021/03/14 08:17:30;;;;;;;0.60;0.60;;;23.20;27.70;;;;;;5071336;28;20201;-47
2021/03/14 08:19:56;;;;;;;1.70;0.70;;;23.20;27.60;;;;;;5071896;28;20250;-42
2021/03/14 08:22:22;;;;;;;1.10;0.60;;;23.10;27.60;;;;;;5071156;28;20735;-43
2021/03/14 08:24:48;;;;;;;0.90;0.70;;;23.10;27.50;;;;;;5070766;28;20208;-42
2021/03/14 08:27:14;;;;;;;0.70;0.70;;;23.20;27.70;;;;;;5072000;28;20658;-43
2021/03/14 08:29:40;;;;;;;1.50;0.70;;;23.10;27.60;;;;;;5061349;28;20208;-42
2021/03/14 08:32:06;;;;;;;0.70;0.70;;;23.10;27.60;;;;;;5050936;28;20229;-42
2021/03/14 08:34:32;;;;;;;0.70;0.70;;;23.10;27.70;;;;;;5061519;28;20637;-44
2021/03/14 08:36:58;;;;;;;0.80;0.60;;;23.20;27.90;;;;;;5061438;28;20205;-42
2021/03/14 08:39:24;;;;;;;0.70;0.70;;;23.20;27.70;;;;;;5070691;28;20255;-42
2021/03/14 08:41:51;;;;;;;0.90;0.70;;;23.20;27.70;;;;;;5071328;28;20712;-42
2021/03/14 08:44:17;;;;;;;0.50;0.50;;;23.20;27.70;;;;;;5069340;28;20600;-45
2021/03/14 08:46:43;;;;;;;2.00;0.60;;;23.20;27.70;;;;;;5071074;28;20209;-45
2021/03/14 08:49:09;;;;;;;1.17;0.80;;;23.20;27.70;;;;;;5051215;28;20566;-43
2021/03/14 08:51:35;;;;;;;1.53;0.93;;;23.20;27.60;;;;;;5049416;28;20224;-43
2021/03/14 08:54:01;;;;;;;6.27;0.77;;;23.20;28.20;;;;;;5054259;28;20209;-43
2021/03/14 08:56:27;;;;;;;2.60;0.90;;;23.20;28.20;;;;;;5064500;28;20568;-43
2021/03/14 08:58:53;;;;;;;2.60;1.10;;;23.30;28.20;;;;;;5068983;28;20213;-43
2021/03/14 09:01:19;;;;;;;3.43;1.00;;;23.20;28.20;;;;;;5069419;28;20281;-45
2021/03/14 09:03:44;;;;;;;1.70;0.90;;;23.20;28.40;;;;;;5069573;28;20197;-44
2021/03/14 09:06:10;;;;;;;1.53;0.80;;;23.20;28.20;;;;;;5069698;28;20552;-46
2021/03/14 09:08:36;;;;;;;2.67;1.00;;;23.20;28.60;;;;;;5059851;28;20206;-45
2021/03/14 09:11:02;;;;;;;4.43;1.00;;;23.10;28.60;;;;;;5055598;28;20201;-45
2021/03/14 09:13:28;;;;;;;0.90;0.90;;;16.10;25.00;;;;;;5070436;28;20210;-44
2021/03/14 09:15:54;;;;;;;1.00;0.90;;;14.60;29.80;;;;;;5069586;28;20210;-53
2021/03/14 09:18:20;;;;;;;1.60;1.30;;;17.70;27.40;;;;;;5071036;28;20535;-53
2021/03/14 09:20:46;;;;;;;0.80;0.80;;;19.50;26.10;;;;;;5068643;28;20230;-44
2021/03/14 09:23:13;;;;;;;1.53;0.90;;;20.60;25.60;;;;;;5070213;28;20222;-52
2021/03/14 09:25:39;;;;;;;2.10;0.90;;;21.20;25.10;;;;;;5071586;28;20207;-44
2021/03/14 09:28:05;;;;;;;0.97;0.80;;;21.70;25.40;;;;;;5074763;28;20205;-46
2021/03/14 09:30:31;;;;;;;0.80;0.80;;;22.00;25.20;;;;;;5073248;28;20213;-46
2021/03/14 09:32:57;;;;;;;0.90;0.70;;;22.20;25.30;;;;;;5073263;28;20627;-43
2021/03/14 09:35:23;;;;;;;1.07;0.90;;;22.40;25.40;;;;;;5073632;28;20197;-43
2021/03/14 09:37:49;;;;;;;1.03;0.90;;;22.60;25.50;;;;;;5074251;28;20206;-43
2021/03/14 09:40:15;;;;;;;1.00;0.70;;;22.60;25.60;;;;;;5074322;28;20230;-44
2021/03/14 09:42:41;;;;;;;0.70;0.70;;;22.70;25.70;;;;;;5072706;28;20225;-43
2021/03/14 09:45:07;;;;;;;1.00;0.90;;;22.80;25.70;;;;;;5058810;28;20539;-41
2021/03/14 09:47:33;;;;;;;0.83;0.80;;;22.80;26.10;;;;;;5042774;28;20255;-43
2021/03/14 09:49:59;;;;;;;0.80;0.80;;;22.90;26.00;;;;;;5073043;28;20670;-42
2021/03/14 09:52:25;;;;;;;1.00;0.90;;;22.90;26.00;;;;;;5073201;28;20230;-46
2021/03/14 09:54:51;;;;;;;1.07;1.00;;;23.00;26.60;;;;;;5072274;28;20200;-42
2021/03/14 09:57:17;;;;;;;0.90;0.70;;;23.00;26.50;;;;;;5072446;28;20309;-46
2021/03/14 09:59:44;;;;;;;1.07;1.00;;;23.10;26.70;;;;;;5073481;28;20203;-47
2021/03/14 10:02:10;;;;;;;1.00;0.90;;;23.10;26.40;;;;;;5069407;28;20285;-45
2021/03/14 10:04:36;;;;;;;1.03;0.93;;;23.10;26.80;;;;;;5074534;28;20564;-44
2021/03/14 10:07:02;;;;;;;1.63;0.83;;;23.10;26.70;;;;;;5072402;28;20234;-49
2021/03/14 10:09:29;;;;;;;1.20;1.10;;;23.10;26.80;;;;;;5069538;28;20204;-46
2021/03/14 10:11:56;;;;;;;3.23;1.03;;;23.10;26.70;;;;;;5060228;28;20227;-49
2021/03/14 10:14:22;;;;;;;1.10;0.90;;;23.10;27.00;;;;;;5067528;28;20280;-44
2021/03/14 10:16:48;;;;;;;0.70;0.70;;;23.10;26.90;;;;;;5072731;28;20283;-52
2021/03/14 10:19:13;;;;;;;2.30;0.90;;;23.10;26.80;;;;;;5072270;28;20672;-50
2021/03/14 10:21:39;;;;;;;2.23;0.80;;;23.10;26.90;;;;;;5072353;28;20232;-49
2021/03/14 10:24:05;;;;;;;3.07;1.13;;;23.10;27.10;;;;;;5071062;28;20208;-53
2021/03/14 10:26:31;;;;;;;3.80;1.00;;;23.10;26.90;;;;;;5073323;28;20224;-48
2021/03/14 10:28:57;;;;;;;1.10;0.90;;;23.10;27.30;;;;;;5072074;28;20204;-53
2021/03/14 10:31:23;;;;;;;1.33;1.13;;;23.10;27.00;;;;;;5069660;28;20330;-49
2021/03/14 10:33:49;;;;;;;1.17;0.90;;;23.10;27.20;;;;;;5069012;28;20646;-45
2021/03/14 10:36:15;;;;;;;2.20;0.90;;;23.10;27.30;;;;;;5071362;28;20201;-55
2021/03/14 10:38:41;;;;;;;0.87;0.87;;;23.10;26.90;;;;;;5065350;28;20212;-50
2021/03/14 10:41:08;;;;;;;1.67;0.90;;;23.10;27.50;;;;;;5070119;28;20608;-47
2021/03/14 10:43:34;;;;;;;1.63;0.90;;;23.10;27.10;;;;;;5070804;28;20205;-50
2021/03/14 10:46:00;;;;;;;1.27;0.97;;;23.00;27.10;;;;;;5070767;28;20206;-53
2021/03/14 10:48:26;;;;;;;2.20;0.93;;;23.00;27.20;;;;;;5071618;28;20212;-44
2021/03/14 10:50:52;;;;;;;2.83;1.00;;;23.00;27.70;;;;;;5071913;28;20594;-46
2021/03/14 10:53:19;;;;;;;2.03;1.07;;;23.00;27.90;;;;;;5069899;28;20205;-45
2021/03/14 10:55:45;;;;;;;2.20;1.10;;;23.00;27.40;;;;;;5070833;28;20200;-46
2021/03/14 10:58:11;;;;;;;1.23;0.90;;;23.00;27.50;;;;;;5070465;28;20197;-47
2021/03/14 11:00:37;;;;;;;1.63;0.90;;;23.00;27.60;;;;;;5072895;28;20221;-48
2021/03/14 11:03:11;;;;;;;2.50;1.10;;;23.00;28.00;;;;;;5069768;28;20528;-46
2021/03/14 11:05:37;;;;;;;1.30;1.00;;;22.90;28.00;;;;;;5071327;28;20281;-45
2021/03/14 11:08:03;;;;;;;1.07;0.90;;;22.90;28.00;;;;;;5070613;28;20201;-46
2021/03/14 11:10:29;;;;;;;2.10;1.10;;;22.90;28.00;;;;;;5056085;28;20223;-44
2021/03/14 11:12:55;;;;;;;1.60;0.87;;;23.00;28.20;;;;;;5066366;28;20305;-43
2021/03/14 11:15:21;;;;;;;1.30;1.17;;;23.10;27.60;;;;;;5069463;28;20613;-46
2021/03/14 11:17:46;;;;;;;1.87;1.00;;;23.10;28.10;;;;;;5064634;28;20218;-43
2021/03/14 11:20:12;;;;;;;2.30;1.10;;;23.10;27.50;;;;;;5072564;28;20681;-45
2021/03/14 11:22:38;;;;;;;1.23;1.10;;;23.20;27.90;;;;;;5072135;28;20225;-45
2021/03/14 11:25:04;;;;;;;2.17;1.10;;;23.10;27.20;;;;;;5071718;28;20212;-47
2021/03/14 11:27:30;;;;;;;1.63;1.10;;;23.10;27.00;;;;;;5073153;28;20583;-47
2021/03/14 11:29:56;;;;;;;2.73;1.40;;;23.10;26.80;;;;;;5069772;28;20249;-51
2021/03/14 11:32:22;;;;;;;1.83;1.20;;;23.10;26.90;;;;;;5062273;28;20282;-46
2021/03/14 11:34:48;;;;;;;1.20;1.00;;;23.10;26.60;;;;;;5068592;28;20225;-44
2021/03/14 11:37:14;;;;;;;1.40;1.30;;;23.10;26.60;;;;;;5061911;28;20208;-43
2021/03/14 11:39:40;;;;;;;2.30;1.00;;;23.10;26.50;;;;;;5057587;28;20196;-54
2021/03/14 11:42:06;;;;;;;2.03;1.40;;;23.10;26.40;;;;;;5072175;28;20240;-48
2021/03/14 11:44:32;;;;;;;1.10;1.00;;;23.10;26.50;;;;;;5073295;28;20205;-45
2021/03/14 11:46:58;;;;;;;2.00;1.27;;;23.10;26.30;;;;;;5066505;28;20262;-45
2021/03/14 11:49:24;;;;;;;2.77;1.20;;;23.10;26.30;;;;;;5065894;28;20212;-46
2021/03/14 11:51:50;;;;;;;3.33;1.27;;;23.10;26.10;;;;;;5072476;28;20225;-46
2021/03/14 11:54:17;;;;;;;1.70;1.20;;;23.00;26.00;;;;;;5072702;28;20228;-45
2021/03/14 11:56:43;;;;;;;1.33;1.00;;;23.10;25.90;;;;;;5072983;28;20231;-47
2021/03/14 11:59:09;;;;;;;4.47;1.20;;;23.10;25.80;;;;;;5070838;28;20197;-44
2021/03/14 12:01:35;;;;;;;3.20;1.40;;;23.10;25.70;;;;;;5059028;28;20232;-43
2021/03/14 12:04:01;;;;;;;1.70;1.00;;;23.10;27.00;;;;;;5070733;28;20637;-49
2021/03/14 12:06:27;;;;;;;1.60;1.10;;;23.10;26.80;;;;;;5070629;28;20203;-49
2021/03/14 12:08:53;;;;;;;1.60;1.10;;;23.10;26.10;;;;;;5069922;28;20656;-50
2021/03/14 12:11:19;;;;;;;1.47;1.03;;;23.10;26.00;;;;;;5069162;28;20227;-49
2021/03/14 12:13:45;;;;;;;3.73;1.10;;;23.10;25.80;;;;;;5068736;28;20205;-48
2021/03/14 12:16:11;;;;;;;1.83;1.00;;;23.20;27.00;;;;;;5069251;28;20200;-48
2021/03/14 12:18:37;;;;;;;3.00;1.07;;;23.30;27.30;;;;;;5069920;28;20671;-47
2021/03/14 12:21:03;;;;;;;3.20;1.10;;;23.30;27.30;;;;;;5068848;28;20233;-44
2021/03/14 12:23:30;;;;;;;2.17;1.00;;;23.40;27.30;;;;;;5070251;28;20212;-43
2021/03/14 12:25:56;;;;;;;2.17;1.10;;;23.50;27.70;;;;;;5071191;28;20212;-44
2021/03/14 12:28:22;;;;;;;2.33;1.23;;;23.50;28.00;;;;;;5069132;28;20638;-45
2021/03/14 12:30:48;;;;;;;2.67;1.27;;;23.50;28.40;;;;;;5070834;28;20768;-43
2021/03/14 12:33:14;;;;;;;1.70;1.20;;;23.60;28.40;;;;;;5070662;28;20205;-44
2021/03/14 12:35:40;;;;;;;1.70;1.20;;;23.60;28.50;;;;;;5070875;28;20672;-47
2021/03/14 12:38:06;;;;;;;1.57;1.20;;;23.50;28.40;;;;;;5069581;28;20219;-45
2021/03/14 12:40:32;;;;;;;2.77;1.40;;;23.50;28.40;;;;;;5068077;28;20258;-48